createdAt,value
2022-10-02T00:03:24.510Z,13.25
2022-10-02T00:07:55.893Z,13.24
2022-10-02T00:12:00.007Z,13.25
2022-10-02T00:16:05.229Z,13.25
2022-10-02T00:20:13.710Z,13.25
2022-10-02T00:24:19.254Z,13.22
2022-10-02T00:28:44.022Z,13.20
2022-10-02T00:32:48.404Z,13.17
2022-10-02T00:37:12.976Z,13.15
2022-10-02T00:41:39.857Z,13.19
2022-10-02T00:45:56.866Z,13.20
2022-10-02T00:50:20.359Z,13.22
2022-10-02T00:54:59.642Z,13.25
2022-10-02T00:59:01.235Z,13.27
2022-10-02T01:03:26.676Z,13.27
2022-10-02T01:07:28.926Z,13.27
2022-10-02T01:11:31.304Z,13.29
2022-10-02T01:15:37.639Z,13.29
2022-10-02T01:19:42.233Z,13.26
2022-10-02T01:24:00.798Z,13.22
2022-10-02T01:28:02.686Z,13.19
2022-10-02T01:32:04.613Z,13.19
2022-10-02T01:36:07.271Z,13.24
2022-10-02T01:40:22.345Z,13.35
2022-10-02T01:44:24.892Z,13.50
2022-10-02T01:48:46.474Z,13.61
2022-10-02T01:53:00.182Z,13.67
2022-10-02T01:57:09.815Z,13.71
2022-10-02T02:01:26.509Z,13.80
2022-10-02T02:05:46.474Z,13.87
2022-10-02T02:09:57.053Z,13.91
2022-10-02T02:14:14.343Z,13.93
2022-10-02T02:18:35.772Z,13.97
2022-10-02T02:22:44.312Z,14.01
2022-10-02T02:26:47.170Z,14.02
2022-10-02T02:30:52.905Z,14.04
2022-10-02T02:35:01.839Z,14.06
2022-10-02T02:39:09.572Z,14.06
2022-10-02T02:43:32.507Z,14.08
2022-10-02T02:47:51.330Z,14.09
2022-10-02T02:51:56.262Z,14.11
2022-10-02T02:56:00.814Z,14.07
2022-10-02T03:00:04.956Z,14.04
2022-10-02T03:04:07.250Z,14.01
2022-10-02T03:08:27.178Z,14.00
2022-10-02T03:12:43.296Z,14.00
2022-10-02T03:17:13.159Z,13.97
2022-10-02T03:21:26.365Z,13.96
2022-10-02T03:25:35.655Z,13.93
2022-10-02T03:29:45.807Z,13.90
2022-10-02T03:33:49.830Z,13.88
2022-10-02T03:37:56.286Z,13.84
2022-10-02T03:41:58.176Z,13.81
2022-10-02T03:45:59.869Z,13.80
2022-10-02T03:50:01.543Z,13.80
2022-10-02T03:54:06.793Z,13.76
2022-10-02T03:58:17.159Z,13.68
2022-10-02T04:02:31.839Z,13.58
2022-10-02T04:06:57.219Z,13.48
2022-10-02T04:11:27.238Z,13.41
2022-10-02T04:15:39.474Z,13.38
2022-10-02T04:19:47.633Z,13.36
2022-10-02T04:23:52.951Z,13.34
2022-10-02T04:28:02.701Z,13.30
2022-10-02T04:32:16.985Z,13.28
2022-10-02T04:36:40.175Z,13.26
2022-10-02T04:41:00.236Z,13.30
2022-10-02T04:45:26.782Z,13.31
2022-10-02T04:49:49.337Z,13.36
2022-10-02T04:54:23.240Z,13.44
2022-10-02T04:58:50.189Z,13.48
2022-10-02T05:03:13.694Z,13.50
2022-10-02T05:07:38.004Z,13.48
2022-10-02T05:12:05.869Z,13.46
2022-10-02T05:16:28.014Z,13.48
2022-10-02T05:20:32.683Z,13.47
2022-10-02T05:24:46.780Z,13.46
2022-10-02T05:29:09.874Z,13.47
2022-10-02T05:33:17.424Z,13.46
2022-10-02T05:37:40.647Z,13.48
2022-10-02T05:41:51.178Z,13.48
2022-10-02T05:46:03.665Z,13.50
2022-10-02T05:50:18.224Z,13.51
2022-10-02T05:54:27.847Z,13.51
2022-10-02T05:58:58.834Z,13.53
2022-10-02T06:03:39.856Z,13.53
2022-10-02T06:07:47.370Z,13.53
2022-10-02T06:11:59.865Z,13.53
2022-10-02T06:16:14.250Z,13.55
2022-10-02T06:20:48.344Z,13.57
2022-10-02T06:24:58.347Z,13.59
2022-10-02T06:29:05.775Z,13.62
2022-10-02T06:33:23.448Z,13.66
2022-10-02T06:38:13.500Z,13.66
2022-10-02T06:43:04.631Z,13.68
2022-10-02T06:47:09.684Z,13.70
2022-10-02T06:51:20.549Z,13.73
2022-10-02T06:55:41.274Z,13.77
2022-10-02T06:59:55.147Z,13.79
2022-10-02T07:03:59.617Z,13.82
2022-10-02T07:08:04.022Z,13.88
2022-10-02T07:12:24.690Z,13.91
2022-10-02T07:16:29.440Z,13.95
2022-10-02T07:20:51.753Z,13.99
2022-10-02T07:25:16.213Z,14.03
2022-10-02T07:29:20.857Z,14.09
2022-10-02T07:33:30.102Z,14.15
2022-10-02T07:37:54.904Z,14.20
2022-10-02T07:42:25.632Z,14.26
2022-10-02T07:46:36.549Z,14.33
2022-10-02T07:51:04.399Z,14.42
2022-10-02T07:55:23.463Z,14.49
2022-10-02T07:59:25.534Z,14.54
2022-10-02T08:03:38.955Z,14.58
2022-10-02T08:07:41.078Z,14.60
2022-10-02T08:11:49.794Z,14.65
2022-10-02T08:15:56.317Z,14.72
2022-10-02T08:20:05.361Z,14.78
2022-10-02T08:24:15.124Z,14.88
2022-10-02T08:28:43.850Z,14.95
2022-10-02T08:32:47.926Z,14.99
2022-10-02T08:37:29.483Z,14.99
2022-10-02T08:41:43.198Z,14.97
2022-10-02T08:46:03.471Z,14.95
2022-10-02T08:50:14.683Z,14.96
2022-10-02T08:54:50.629Z,14.96
2022-10-02T08:59:19.046Z,14.96
2022-10-02T09:03:35.884Z,14.98
2022-10-02T09:07:59.355Z,15.02
2022-10-02T09:12:38.701Z,15.09
2022-10-02T09:17:12.931Z,15.18
2022-10-02T09:21:21.399Z,15.28
2022-10-02T09:25:55.594Z,15.29
2022-10-02T09:30:15.311Z,15.31
2022-10-02T09:34:43.255Z,15.34
2022-10-02T09:38:53.725Z,15.38
2022-10-02T09:43:13.986Z,15.36
2022-10-02T09:47:30.622Z,15.33
2022-10-02T09:51:56.243Z,15.31
2022-10-02T09:56:21.002Z,15.30
2022-10-02T10:00:46.516Z,15.32
2022-10-02T10:05:32.990Z,15.48
2022-10-02T10:09:53.238Z,15.63
2022-10-02T10:13:57.915Z,15.70
2022-10-02T10:18:23.889Z,15.81
2022-10-02T10:22:39.057Z,15.84
2022-10-02T10:26:56.253Z,15.91
2022-10-02T10:31:25.733Z,15.97
2022-10-02T10:36:36.656Z,16.05
2022-10-02T10:40:47.054Z,16.05
2022-10-02T10:45:13.083Z,16.03
2022-10-02T10:49:17.472Z,16.00
2022-10-02T10:53:28.417Z,16.03
2022-10-02T10:58:06.691Z,16.04
2022-10-02T11:02:26.717Z,16.09
2022-10-02T11:06:50.622Z,16.11
2022-10-02T11:11:10.059Z,15.94
2022-10-02T11:15:20.934Z,15.74
2022-10-02T11:19:53.868Z,15.64
2022-10-02T11:24:29.068Z,15.52
2022-10-02T11:29:06.358Z,15.42
2022-10-02T11:33:39.369Z,15.35
2022-10-02T11:37:50.125Z,15.32
2022-10-02T11:41:59.379Z,15.31
2022-10-02T11:46:16.660Z,15.31
2022-10-02T11:50:45.907Z,15.31
2022-10-02T11:54:59.764Z,15.40
2022-10-02T11:59:10.165Z,15.51
2022-10-02T12:03:45.049Z,15.60
2022-10-02T12:07:59.491Z,15.66
2022-10-02T12:12:38.875Z,15.66
2022-10-02T12:16:57.819Z,15.66
2022-10-02T12:21:31.646Z,15.64
2022-10-02T12:26:05.118Z,15.67
2022-10-02T12:30:15.060Z,15.69
2022-10-02T12:34:35.594Z,15.73
2022-10-02T12:38:52.517Z,15.75
2022-10-02T12:43:13.015Z,15.81
2022-10-02T12:47:30.251Z,15.79
2022-10-02T12:51:38.583Z,15.76
2022-10-02T12:55:52.698Z,15.82
2022-10-02T13:00:19.424Z,15.77
2022-10-02T13:04:43.898Z,15.64
2022-10-02T13:09:06.201Z,15.58
2022-10-02T13:13:36.208Z,15.63
2022-10-02T13:17:56.067Z,15.67
2022-10-02T13:22:31.449Z,15.57
2022-10-02T13:26:55.881Z,15.47
2022-10-02T13:31:18.333Z,15.38
2022-10-02T13:35:27.703Z,15.32
2022-10-02T13:39:48.474Z,15.28
2022-10-02T13:44:24.169Z,15.34
2022-10-02T13:48:55.298Z,15.44
2022-10-02T13:53:13.348Z,15.55
2022-10-02T13:57:31.910Z,15.72
2022-10-02T14:01:36.724Z,15.78
2022-10-02T14:05:45.940Z,15.77
2022-10-02T14:10:10.900Z,15.75
2022-10-02T14:14:19.390Z,15.79
2022-10-02T14:18:39.008Z,15.73
2022-10-02T14:23:09.829Z,15.66
2022-10-02T14:27:49.407Z,15.69
2022-10-02T14:32:17.367Z,15.66
2022-10-02T14:36:26.212Z,15.67
2022-10-02T14:40:34.466Z,15.60
2022-10-02T14:45:30.195Z,15.55
2022-10-02T14:50:16.750Z,15.57
2022-10-02T14:54:47.729Z,15.60
2022-10-02T14:59:11.202Z,15.50
2022-10-02T15:03:21.782Z,15.44
2022-10-02T15:07:28.308Z,15.44
2022-10-02T15:11:36.364Z,15.41
2022-10-02T15:16:14.682Z,15.37
2022-10-02T15:20:44.047Z,15.34
2022-10-02T15:24:55.985Z,15.34
2022-10-02T15:29:09.296Z,15.42
2022-10-02T15:33:23.714Z,15.50
2022-10-02T15:37:33.935Z,15.52
2022-10-02T15:41:45.731Z,15.54
2022-10-02T15:46:06.501Z,15.51
2022-10-02T15:50:19.356Z,15.45
2022-10-02T15:54:33.175Z,15.35
2022-10-02T15:58:52.940Z,15.19
2022-10-02T16:03:18.273Z,15.11
2022-10-02T16:07:44.608Z,15.02
2022-10-02T16:12:24.414Z,14.97
2022-10-02T16:16:40.878Z,14.97
2022-10-02T16:20:55.623Z,14.92
2022-10-02T16:25:31.600Z,14.84
2022-10-02T16:30:05.564Z,14.73
2022-10-02T16:34:38.974Z,14.67
2022-10-02T16:39:21.638Z,14.61
2022-10-02T16:43:54.342Z,14.55
2022-10-02T16:48:19.291Z,14.48
2022-10-02T16:52:52.548Z,14.41
2022-10-02T16:57:07.251Z,14.37
2022-10-02T17:01:36.958Z,14.31
2022-10-02T17:05:56.905Z,14.25
2022-10-02T17:10:07.425Z,14.19
2022-10-02T17:14:12.290Z,14.12
2022-10-02T17:18:41.497Z,14.08
2022-10-02T17:22:50.671Z,14.04
2022-10-02T17:27:06.983Z,13.99
2022-10-02T17:31:35.569Z,13.93
2022-10-02T17:35:45.309Z,13.89
2022-10-02T17:40:28.098Z,13.81
2022-10-02T17:45:06.589Z,13.76
2022-10-02T17:49:08.246Z,13.70
2022-10-02T17:53:55.922Z,13.65
2022-10-02T17:58:13.155Z,13.60
2022-10-02T18:02:37.972Z,13.55
2022-10-02T18:06:48.023Z,13.49
2022-10-02T18:11:12.356Z,13.45
2022-10-02T18:15:52.037Z,13.43
2022-10-02T18:20:02.919Z,13.40
2022-10-02T18:24:34.269Z,13.39
2022-10-02T18:29:02.586Z,13.35
2022-10-02T18:33:13.203Z,13.30
2022-10-02T18:37:52.441Z,13.25
2022-10-02T18:41:59.695Z,13.22
2022-10-02T18:46:21.491Z,13.18
2022-10-02T18:50:39.753Z,13.17
2022-10-02T18:54:45.342Z,13.14
2022-10-02T18:59:12.901Z,13.14
2022-10-02T19:04:00.611Z,13.12
2022-10-02T19:08:05.055Z,13.10
2022-10-02T19:12:22.293Z,13.07
2022-10-02T19:16:27.116Z,13.05
2022-10-02T19:20:43.745Z,13.02
2022-10-02T19:24:51.148Z,13.00
2022-10-02T19:29:00.574Z,12.97
2022-10-02T19:33:12.465Z,12.94
2022-10-02T19:37:17.397Z,12.94
2022-10-02T19:41:20.034Z,12.93
2022-10-02T19:45:27.707Z,12.91
2022-10-02T19:49:39.528Z,12.88
2022-10-02T19:53:53.486Z,12.85
2022-10-02T19:58:00.779Z,12.82
2022-10-02T20:02:13.142Z,12.78
2022-10-02T20:06:22.392Z,12.75
2022-10-02T20:10:40.759Z,12.67
2022-10-02T20:14:54.119Z,12.60
2022-10-02T20:18:55.952Z,12.55
2022-10-02T20:23:01.778Z,12.52
2022-10-02T20:27:12.747Z,12.48
2022-10-02T20:31:22.882Z,12.50
2022-10-02T20:35:34.751Z,12.50
2022-10-02T20:39:48.542Z,12.47
2022-10-02T20:43:56.662Z,12.46
2022-10-02T20:49:06.461Z,12.42
2022-10-02T20:53:05.637Z,12.44
2022-10-02T20:57:29.758Z,12.41
2022-10-02T21:02:27.036Z,12.38
2022-10-02T21:06:50.695Z,12.37
2022-10-02T21:10:58.895Z,12.34
2022-10-02T21:15:09.603Z,12.30
2022-10-02T21:20:00.376Z,12.25
2022-10-02T21:24:15.019Z,12.18
2022-10-02T21:28:19.712Z,12.10
2022-10-02T21:32:38.378Z,12.04
2022-10-02T21:36:42.290Z,11.99
2022-10-02T21:41:18.124Z,11.97
2022-10-02T21:45:46.394Z,11.92
2022-10-02T21:50:14.363Z,11.87
2022-10-02T21:54:34.642Z,11.82
2022-10-02T21:58:51.477Z,11.76
2022-10-02T22:03:10.283Z,11.71
2022-10-02T22:07:29.975Z,11.64
2022-10-02T22:11:46.508Z,11.59
2022-10-02T22:16:25.174Z,11.53
2022-10-02T22:20:43.261Z,11.51
2022-10-02T22:25:09.000Z,11.47
2022-10-02T22:29:43.352Z,11.46
2022-10-02T22:34:06.629Z,11.43
2022-10-02T22:38:32.853Z,11.39
2022-10-02T22:42:42.590Z,11.32
2022-10-02T22:46:50.537Z,11.27
2022-10-02T22:51:03.377Z,11.23
2022-10-02T22:55:22.961Z,11.20
2022-10-02T22:59:32.531Z,11.15
2022-10-02T23:03:58.958Z,11.10
2022-10-02T23:08:11.522Z,11.06
2022-10-02T23:12:29.156Z,11.04
2022-10-02T23:16:39.722Z,11.00
2022-10-02T23:20:50.219Z,10.98
2022-10-02T23:25:15.798Z,10.93
2022-10-02T23:29:42.384Z,10.89
2022-10-02T23:33:58.421Z,10.84
2022-10-02T23:38:12.176Z,10.81
2022-10-02T23:42:18.571Z,10.79
2022-10-02T23:46:28.330Z,10.77
2022-10-02T23:51:32.125Z,10.73
2022-10-02T23:55:48.600Z,10.72
2022-10-02T23:59:59.793Z,10.72
